sensor_id;sensor_type;location;lat;lon;timestamp;P1;durP1;ratioP1;P2;durP2;ratioP2
19842;SDS011;10082;51.038;6.992;2023-04-28T00:00:22;4.45;;;3.92;;
19842;SDS011;10082;51.038;6.992;2023-04-28T00:02:50;6.00;;;3.50;;
19842;SDS011;10082;51.038;6.992;2023-04-28T00:05:18;4.88;;;3.30;;
19842;SDS011;10082;51.038;6.992;2023-04-28T00:07:48;5.95;;;3.67;;
19842;SDS011;10082;51.038;6.992;2023-04-28T00:10:15;5.57;;;3.63;;
19842;SDS011;10082;51.038;6.992;2023-04-28T00:12:43;4.90;;;3.53;;
19842;SDS011;10082;51.038;6.992;2023-04-28T00:15:11;3.70;;;3.40;;
19842;SDS011;10082;51.038;6.992;2023-04-28T00:17:38;5.03;;;4.40;;
19842;SDS011;10082;51.038;6.992;2023-04-28T00:20:06;4.95;;;3.88;;
19842;SDS011;10082;51.038;6.992;2023-04-28T00:22:34;6.82;;;3.90;;
19842;SDS011;10082;51.038;6.992;2023-04-28T00:25:03;6.47;;;3.78;;
19842;SDS011;10082;51.038;6.992;2023-04-28T00:27:31;4.72;;;3.80;;
19842;SDS011;10082;51.038;6.992;2023-04-28T00:29:58;5.13;;;3.90;;
19842;SDS011;10082;51.038;6.992;2023-04-28T00:32:26;5.68;;;4.03;;
19842;SDS011;10082;51.038;6.992;2023-04-28T00:34:53;7.00;;;4.25;;
19842;SDS011;10082;51.038;6.992;2023-04-28T00:37:22;5.18;;;4.28;;
19842;SDS011;10082;51.038;6.992;2023-04-28T00:39:53;5.22;;;4.00;;
19842;SDS011;10082;51.038;6.992;2023-04-28T00:42:22;5.18;;;4.13;;
19842;SDS011;10082;51.038;6.992;2023-04-28T00:44:49;5.95;;;3.92;;
19842;SDS011;10082;51.038;6.992;2023-04-28T00:47:17;4.22;;;3.83;;
19842;SDS011;10082;51.038;6.992;2023-04-28T00:49:45;6.03;;;4.32;;
19842;SDS011;10082;51.038;6.992;2023-04-28T00:52:14;4.97;;;4.53;;
19842;SDS011;10082;51.038;6.992;2023-04-28T00:54:41;5.13;;;4.10;;
19842;SDS011;10082;51.038;6.992;2023-04-28T00:57:08;5.75;;;4.45;;
19842;SDS011;10082;51.038;6.992;2023-04-28T00:59:37;4.00;;;3.70;;
19842;SDS011;10082;51.038;6.992;2023-04-28T01:02:05;5.60;;;4.07;;
19842;SDS011;10082;51.038;6.992;2023-04-28T01:04:32;4.72;;;4.20;;
19842;SDS011;10082;51.038;6.992;2023-04-28T01:07:01;4.88;;;3.78;;
19842;SDS011;10082;51.038;6.992;2023-04-28T01:09:28;5.45;;;4.18;;
19842;SDS011;10082;51.038;6.992;2023-04-28T01:11:56;6.28;;;4.63;;
19842;SDS011;10082;51.038;6.992;2023-04-28T01:14:51;5.18;;;4.40;;
19842;SDS011;10082;51.038;6.992;2023-04-28T01:17:18;6.10;;;4.45;;
19842;SDS011;10082;51.038;6.992;2023-04-28T01:19:47;7.00;;;4.90;;
19842;SDS011;10082;51.038;6.992;2023-04-28T01:22:14;6.72;;;5.28;;
19842;SDS011;10082;51.038;6.992;2023-04-28T01:24:44;6.00;;;5.15;;
19842;SDS011;10082;51.038;6.992;2023-04-28T01:27:12;6.55;;;4.97;;
19842;SDS011;10082;51.038;6.992;2023-04-28T01:29:40;6.00;;;5.40;;
19842;SDS011;10082;51.038;6.992;2023-04-28T01:32:08;6.63;;;5.95;;
19842;SDS011;10082;51.038;6.992;2023-04-28T01:34:35;6.55;;;5.85;;
19842;SDS011;10082;51.038;6.992;2023-04-28T01:37:04;7.60;;;5.82;;
19842;SDS011;10082;51.038;6.992;2023-04-28T01:39:31;8.00;;;6.10;;
19842;SDS011;10082;51.038;6.992;2023-04-28T01:42:03;6.15;;;5.55;;
19842;SDS011;10082;51.038;6.992;2023-04-28T01:44:31;6.35;;;5.50;;
19842;SDS011;10082;51.038;6.992;2023-04-28T01:46:59;6.10;;;5.32;;
19842;SDS011;10082;51.038;6.992;2023-04-28T01:49:26;6.65;;;5.68;;
19842;SDS011;10082;51.038;6.992;2023-04-28T01:51:53;6.10;;;5.13;;
19842;SDS011;10082;51.038;6.992;2023-04-28T01:54:21;10.95;;;5.68;;
19842;SDS011;10082;51.038;6.992;2023-04-28T01:56:48;8.02;;;5.60;;
19842;SDS011;10082;51.038;6.992;2023-04-28T01:59:19;5.57;;;4.53;;
19842;SDS011;10082;51.038;6.992;2023-04-28T02:01:46;5.88;;;5.03;;
19842;SDS011;10082;51.038;6.992;2023-04-28T02:04:14;5.07;;;4.55;;
19842;SDS011;10082;51.038;6.992;2023-04-28T02:06:41;5.75;;;5.15;;
19842;SDS011;10082;51.038;6.992;2023-04-28T02:09:11;8.23;;;5.30;;
19842;SDS011;10082;51.038;6.992;2023-04-28T02:11:38;5.85;;;5.22;;
19842;SDS011;10082;51.038;6.992;2023-04-28T02:14:05;6.75;;;5.40;;
19842;SDS011;10082;51.038;6.992;2023-04-28T02:16:34;5.93;;;5.38;;
19842;SDS011;10082;51.038;6.992;2023-04-28T02:19:01;7.65;;;5.53;;
19842;SDS011;10082;51.038;6.992;2023-04-28T02:21:28;8.00;;;6.30;;
19842;SDS011;10082;51.038;6.992;2023-04-28T02:23:56;7.28;;;6.55;;
19842;SDS011;10082;51.038;6.992;2023-04-28T02:26:23;7.80;;;7.10;;
19842;SDS011;10082;51.038;6.992;2023-04-28T02:28:50;8.32;;;7.47;;
19842;SDS011;10082;51.038;6.992;2023-04-28T02:31:17;8.85;;;7.88;;
19842;SDS011;10082;51.038;6.992;2023-04-28T02:33:46;9.98;;;8.77;;
19842;SDS011;10082;51.038;6.992;2023-04-28T02:36:13;9.95;;;8.95;;
19842;SDS011;10082;51.038;6.992;2023-04-28T02:38:40;10.25;;;9.25;;
19842;SDS011;10082;51.038;6.992;2023-04-28T02:41:08;10.55;;;8.52;;
19842;SDS011;10082;51.038;6.992;2023-04-28T02:43:35;10.00;;;9.10;;
19842;SDS011;10082;51.038;6.992;2023-04-28T02:46:03;10.55;;;9.43;;
19842;SDS011;10082;51.038;6.992;2023-04-28T02:48:30;10.50;;;9.45;;
19842;SDS011;10082;51.038;6.992;2023-04-28T02:51:01;9.20;;;7.70;;
19842;SDS011;10082;51.038;6.992;2023-04-28T02:53:29;8.90;;;8.00;;
19842;SDS011;10082;51.038;6.992;2023-04-28T02:55:56;10.10;;;9.05;;
19842;SDS011;10082;51.038;6.992;2023-04-28T02:58:26;10.15;;;9.10;;
19842;SDS011;10082;51.038;6.992;2023-04-28T03:00:53;9.25;;;8.20;;
19842;SDS011;10082;51.038;6.992;2023-04-28T03:03:21;9.35;;;8.10;;
19842;SDS011;10082;51.038;6.992;2023-04-28T03:05:51;7.70;;;7.00;;
19842;SDS011;10082;51.038;6.992;2023-04-28T03:08:20;7.93;;;6.57;;
19842;SDS011;10082;51.038;6.992;2023-04-28T03:10:47;7.05;;;6.43;;
19842;SDS011;10082;51.038;6.992;2023-04-28T03:13:14;6.53;;;5.50;;
19842;SDS011;10082;51.038;6.992;2023-04-28T03:15:42;7.40;;;6.18;;
19842;SDS011;10082;51.038;6.992;2023-04-28T03:18:10;7.40;;;6.22;;
19842;SDS011;10082;51.038;6.992;2023-04-28T03:20:37;7.97;;;6.30;;
19842;SDS011;10082;51.038;6.992;2023-04-28T03:23:05;6.93;;;6.20;;
19842;SDS011;10082;51.038;6.992;2023-04-28T03:25:33;6.75;;;6.05;;
19842;SDS011;10082;51.038;6.992;2023-04-28T03:28:01;7.60;;;6.22;;
19842;SDS011;10082;51.038;6.992;2023-04-28T03:30:29;7.45;;;6.05;;
19842;SDS011;10082;51.038;6.992;2023-04-28T03:32:57;6.63;;;5.88;;
19842;SDS011;10082;51.038;6.992;2023-04-28T03:35:24;7.13;;;6.40;;
19842;SDS011;10082;51.038;6.992;2023-04-28T03:37:52;8.85;;;7.00;;
19842;SDS011;10082;51.038;6.992;2023-04-28T03:40:19;7.57;;;6.80;;
19842;SDS011;10082;51.038;6.992;2023-04-28T03:43:26;7.65;;;6.90;;
19842;SDS011;10082;51.038;6.992;2023-04-28T03:46:12;10.25;;;8.20;;
19842;SDS011;10082;51.038;6.992;2023-04-28T03:48:40;9.23;;;8.32;;
19842;SDS011;10082;51.038;6.992;2023-04-28T03:51:07;9.15;;;8.25;;
19842;SDS011;10082;51.038;6.992;2023-04-28T03:53:34;9.20;;;8.43;;
19842;SDS011;10082;51.038;6.992;2023-04-28T03:56:03;10.55;;;9.45;;
19842;SDS011;10082;51.038;6.992;2023-04-28T03:58:32;10.80;;;9.23;;
19842;SDS011;10082;51.038;6.992;2023-04-28T04:01:00;11.77;;;10.20;;
19842;SDS011;10082;51.038;6.992;2023-04-28T04:03:27;13.00;;;10.35;;
19842;SDS011;10082;51.038;6.992;2023-04-28T04:05:55;12.45;;;11.15;;
19842;SDS011;10082;51.038;6.992;2023-04-28T04:08:22;12.88;;;11.50;;
19842;SDS011;10082;51.038;6.992;2023-04-28T04:10:49;13.10;;;11.63;;
19842;SDS011;10082;51.038;6.992;2023-04-28T04:13:18;12.52;;;11.00;;
19842;SDS011;10082;51.038;6.992;2023-04-28T04:15:47;12.77;;;10.90;;
19842;SDS011;10082;51.038;6.992;2023-04-28T04:18:17;15.45;;;11.07;;
19842;SDS011;10082;51.038;6.992;2023-04-28T04:21:04;11.77;;;10.63;;
19842;SDS011;10082;51.038;6.992;2023-04-28T04:23:31;10.65;;;9.55;;
19842;SDS011;10082;51.038;6.992;2023-04-28T04:25:59;10.35;;;9.35;;
19842;SDS011;10082;51.038;6.992;2023-04-28T04:28:26;10.18;;;9.18;;
19842;SDS011;10082;51.038;6.992;2023-04-28T04:30:56;9.02;;;8.23;;
19842;SDS011;10082;51.038;6.992;2023-04-28T04:33:24;8.85;;;7.93;;
19842;SDS011;10082;51.038;6.992;2023-04-28T04:35:51;9.10;;;8.30;;
19842;SDS011;10082;51.038;6.992;2023-04-28T04:41:21;8.88;;;7.90;;
19842;SDS011;10082;51.038;6.992;2023-04-28T04:43:58;8.80;;;7.55;;
19842;SDS011;10082;51.038;6.992;2023-04-28T04:46:31;10.50;;;8.07;;
19842;SDS011;10082;51.038;6.992;2023-04-28T04:48:58;10.48;;;8.20;;
19842;SDS011;10082;51.038;6.992;2023-04-28T04:51:26;8.43;;;7.60;;
19842;SDS011;10082;51.038;6.992;2023-04-28T04:53:54;8.57;;;7.65;;
19842;SDS011;10082;51.038;6.992;2023-04-28T04:56:21;8.68;;;7.78;;
19842;SDS011;10082;51.038;6.992;2023-04-28T04:58:51;8.60;;;7.70;;
19842;SDS011;10082;51.038;6.992;2023-04-28T05:01:40;8.65;;;7.75;;
19842;SDS011;10082;51.038;6.992;2023-04-28T05:04:08;9.25;;;8.23;;
19842;SDS011;10082;51.038;6.992;2023-04-28T05:06:35;8.45;;;7.72;;
19842;SDS011;10082;51.038;6.992;2023-04-28T05:09:03;10.77;;;7.65;;
19842;SDS011;10082;51.038;6.992;2023-04-28T05:11:31;7.97;;;7.22;;
19842;SDS011;10082;51.038;6.992;2023-04-28T05:13:58;8.48;;;7.63;;
19842;SDS011;10082;51.038;6.992;2023-04-28T05:16:25;8.35;;;7.55;;
19842;SDS011;10082;51.038;6.992;2023-04-28T05:19:01;9.27;;;7.28;;
19842;SDS011;10082;51.038;6.992;2023-04-28T05:21:30;8.77;;;7.88;;
19842;SDS011;10082;51.038;6.992;2023-04-28T05:23:57;7.57;;;6.88;;
19842;SDS011;10082;51.038;6.992;2023-04-28T05:26:25;7.40;;;6.47;;
19842;SDS011;10082;51.038;6.992;2023-04-28T05:28:59;8.32;;;7.28;;
19842;SDS011;10082;51.038;6.992;2023-04-28T05:31:27;8.20;;;7.45;;
19842;SDS011;10082;51.038;6.992;2023-04-28T05:33:54;8.65;;;7.75;;
19842;SDS011;10082;51.038;6.992;2023-04-28T05:36:25;8.60;;;7.70;;
19842;SDS011;10082;51.038;6.992;2023-04-28T05:38:52;9.70;;;8.00;;
19842;SDS011;10082;51.038;6.992;2023-04-28T05:41:20;8.35;;;7.57;;
19842;SDS011;10082;51.038;6.992;2023-04-28T05:43:47;8.90;;;8.10;;
19842;SDS011;10082;51.038;6.992;2023-04-28T05:46:15;9.00;;;8.05;;
19842;SDS011;10082;51.038;6.992;2023-04-28T05:48:42;12.32;;;8.82;;
19842;SDS011;10082;51.038;6.992;2023-04-28T05:51:10;8.95;;;8.05;;
19842;SDS011;10082;51.038;6.992;2023-04-28T05:53:39;8.55;;;7.78;;
19842;SDS011;10082;51.038;6.992;2023-04-28T05:56:08;9.40;;;8.48;;
19842;SDS011;10082;51.038;6.992;2023-04-28T05:58:35;9.27;;;8.20;;
19842;SDS011;10082;51.038;6.992;2023-04-28T06:01:03;8.48;;;7.75;;
19842;SDS011;10082;51.038;6.992;2023-04-28T06:03:31;8.70;;;7.97;;
19842;SDS011;10082;51.038;6.992;2023-04-28T06:05:58;8.77;;;7.88;;
19842;SDS011;10082;51.038;6.992;2023-04-28T06:08:26;8.50;;;7.75;;
19842;SDS011;10082;51.038;6.992;2023-04-28T06:10:55;8.82;;;7.20;;
19842;SDS011;10082;51.038;6.992;2023-04-28T06:13:22;8.55;;;7.72;;
19842;SDS011;10082;51.038;6.992;2023-04-28T06:15:51;8.30;;;7.47;;
19842;SDS011;10082;51.038;6.992;2023-04-28T06:18:18;8.38;;;7.57;;
19842;SDS011;10082;51.038;6.992;2023-04-28T06:20:45;8.07;;;7.28;;
19842;SDS011;10082;51.038;6.992;2023-04-28T06:23:13;8.45;;;7.53;;
19842;SDS011;10082;51.038;6.992;2023-04-28T06:25:44;8.23;;;7.53;;
19842;SDS011;10082;51.038;6.992;2023-04-28T06:28:12;8.48;;;7.60;;
19842;SDS011;10082;51.038;6.992;2023-04-28T06:30:41;8.68;;;7.35;;
19842;SDS011;10082;51.038;6.992;2023-04-28T06:33:08;7.32;;;6.63;;
19842;SDS011;10082;51.038;6.992;2023-04-28T06:35:35;8.18;;;7.47;;
19842;SDS011;10082;51.038;6.992;2023-04-28T06:38:05;7.72;;;7.03;;
19842;SDS011;10082;51.038;6.992;2023-04-28T06:40:32;7.10;;;6.47;;
19842;SDS011;10082;51.038;6.992;2023-04-28T06:43:01;8.18;;;7.30;;
19842;SDS011;10082;51.038;6.992;2023-04-28T06:45:40;7.45;;;6.78;;
19842;SDS011;10082;51.038;6.992;2023-04-28T06:48:07;7.32;;;6.47;;
19842;SDS011;10082;51.038;6.992;2023-04-28T06:50:37;7.53;;;6.55;;
19842;SDS011;10082;51.038;6.992;2023-04-28T06:53:05;6.70;;;6.13;;
19842;SDS011;10082;51.038;6.992;2023-04-28T06:55:33;7.05;;;6.35;;
19842;SDS011;10082;51.038;6.992;2023-04-28T06:58:11;7.70;;;6.78;;
19842;SDS011;10082;51.038;6.992;2023-04-28T07:00:40;7.10;;;6.47;;
19842;SDS011;10082;51.038;6.992;2023-04-28T07:03:07;6.70;;;6.00;;
19842;SDS011;10082;51.038;6.992;2023-04-28T07:05:35;7.35;;;6.60;;
19842;SDS011;10082;51.038;6.992;2023-04-28T07:08:03;6.55;;;5.95;;
19842;SDS011;10082;51.038;6.992;2023-04-28T07:10:30;7.75;;;6.72;;
19842;SDS011;10082;51.038;6.992;2023-04-28T07:12:58;7.07;;;6.43;;
19842;SDS011;10082;51.038;6.992;2023-04-28T07:15:25;7.18;;;6.47;;
19842;SDS011;10082;51.038;6.992;2023-04-28T07:17:54;7.32;;;6.03;;
19842;SDS011;10082;51.038;6.992;2023-04-28T07:20:21;6.90;;;6.22;;
19842;SDS011;10082;51.038;6.992;2023-04-28T07:22:49;8.80;;;6.60;;
19842;SDS011;10082;51.038;6.992;2023-04-28T07:25:16;6.50;;;5.90;;
19842;SDS011;10082;51.038;6.992;2023-04-28T07:27:44;6.40;;;5.80;;
19842;SDS011;10082;51.038;6.992;2023-04-28T07:30:11;6.38;;;5.80;;
19842;SDS011;10082;51.038;6.992;2023-04-28T07:32:38;7.15;;;6.45;;
19842;SDS011;10082;51.038;6.992;2023-04-28T07:35:07;6.13;;;5.63;;
19842;SDS011;10082;51.038;6.992;2023-04-28T07:37:35;7.40;;;6.80;;
19842;SDS011;10082;51.038;6.992;2023-04-28T07:40:03;7.88;;;6.35;;
19842;SDS011;10082;51.038;6.992;2023-04-28T07:42:31;7.53;;;6.75;;
19842;SDS011;10082;51.038;6.992;2023-04-28T07:44:58;7.15;;;6.45;;
19842;SDS011;10082;51.038;6.992;2023-04-28T07:47:25;7.07;;;6.47;;
19842;SDS011;10082;51.038;6.992;2023-04-28T07:49:53;6.75;;;6.03;;
19842;SDS011;10082;51.038;6.992;2023-04-28T07:52:22;7.85;;;6.80;;
19842;SDS011;10082;51.038;6.992;2023-04-28T07:54:49;7.18;;;6.43;;
19842;SDS011;10082;51.038;6.992;2023-04-28T07:57:16;6.78;;;6.07;;
19842;SDS011;10082;51.038;6.992;2023-04-28T07:59:44;6.60;;;5.65;;
19842;SDS011;10082;51.038;6.992;2023-04-28T08:02:11;7.63;;;6.13;;
19842;SDS011;10082;51.038;6.992;2023-04-28T08:04:39;7.07;;;5.93;;
19842;SDS011;10082;51.038;6.992;2023-04-28T08:07:07;6.50;;;5.90;;
19842;SDS011;10082;51.038;6.992;2023-04-28T08:09:36;6.55;;;5.97;;
19842;SDS011;10082;51.038;6.992;2023-04-28T08:12:04;7.40;;;5.85;;
19842;SDS011;10082;51.038;6.992;2023-04-28T08:17:00;6.80;;;5.65;;
19842;SDS011;10082;51.038;6.992;2023-04-28T08:19:27;5.80;;;5.28;;
19842;SDS011;10082;51.038;6.992;2023-04-28T08:21:54;6.75;;;5.55;;
19842;SDS011;10082;51.038;6.992;2023-04-28T08:24:21;6.30;;;5.70;;
19842;SDS011;10082;51.038;6.992;2023-04-28T08:26:50;6.20;;;5.65;;
19842;SDS011;10082;51.038;6.992;2023-04-28T08:29:17;6.13;;;5.53;;
19842;SDS011;10082;51.038;6.992;2023-04-28T08:31:44;7.35;;;5.05;;
19842;SDS011;10082;51.038;6.992;2023-04-28T08:34:11;5.70;;;5.20;;
19842;SDS011;10082;51.038;6.992;2023-04-28T08:36:38;7.25;;;5.57;;
19842;SDS011;10082;51.038;6.992;2023-04-28T08:39:05;6.60;;;5.43;;
19842;SDS011;10082;51.038;6.992;2023-04-28T08:41:32;6.40;;;5.80;;
19842;SDS011;10082;51.038;6.992;2023-04-28T08:44:07;5.85;;;5.10;;
19842;SDS011;10082;51.038;6.992;2023-04-28T08:46:34;5.55;;;5.05;;
19842;SDS011;10082;51.038;6.992;2023-04-28T08:49:01;6.47;;;5.47;;
19842;SDS011;10082;51.038;6.992;2023-04-28T08:51:33;5.50;;;5.10;;
19842;SDS011;10082;51.038;6.992;2023-04-28T08:54:04;5.75;;;5.25;;
19842;SDS011;10082;51.038;6.992;2023-04-28T08:56:33;6.03;;;5.47;;
19842;SDS011;10082;51.038;6.992;2023-04-28T08:59:01;6.68;;;6.05;;
19842;SDS011;10082;51.038;6.992;2023-04-28T09:01:31;5.30;;;4.90;;
19842;SDS011;10082;51.038;6.992;2023-04-28T09:03:59;5.47;;;4.97;;
19842;SDS011;10082;51.038;6.992;2023-04-28T09:06:29;5.85;;;5.35;;
19842;SDS011;10082;51.038;6.992;2023-04-28T09:11:50;6.40;;;5.70;;
19842;SDS011;10082;51.038;6.992;2023-04-28T09:14:20;5.72;;;5.22;;
19842;SDS011;10082;51.038;6.992;2023-04-28T09:16:50;6.07;;;5.47;;
19842;SDS011;10082;51.038;6.992;2023-04-28T09:19:17;6.50;;;5.72;;
19842;SDS011;10082;51.038;6.992;2023-04-28T09:21:45;7.00;;;6.32;;
19842;SDS011;10082;51.038;6.992;2023-04-28T09:24:29;6.75;;;5.88;;
19842;SDS011;10082;51.038;6.992;2023-04-28T09:26:57;7.30;;;6.32;;
19842;SDS011;10082;51.038;6.992;2023-04-28T09:29:25;7.05;;;6.35;;
19842;SDS011;10082;51.038;6.992;2023-04-28T09:31:55;7.95;;;7.20;;
19842;SDS011;10082;51.038;6.992;2023-04-28T09:34:41;8.50;;;7.72;;
19842;SDS011;10082;51.038;6.992;2023-04-28T09:37:14;8.57;;;7.78;;
19842;SDS011;10082;51.038;6.992;2023-04-28T09:39:43;9.70;;;8.60;;
19842;SDS011;10082;51.038;6.992;2023-04-28T09:42:10;10.35;;;9.43;;
19842;SDS011;10082;51.038;6.992;2023-04-28T09:44:57;10.48;;;9.55;;
19842;SDS011;10082;51.038;6.992;2023-04-28T09:47:28;11.65;;;10.50;;
19842;SDS011;10082;51.038;6.992;2023-04-28T09:49:56;12.15;;;10.98;;
19842;SDS011;10082;51.038;6.992;2023-04-28T09:55:13;12.45;;;10.98;;
19842;SDS011;10082;51.038;6.992;2023-04-28T09:57:41;13.77;;;12.55;;
19842;SDS011;10082;51.038;6.992;2023-04-28T10:00:11;14.23;;;12.82;;
19842;SDS011;10082;51.038;6.992;2023-04-28T10:02:40;15.80;;;14.27;;
19842;SDS011;10082;51.038;6.992;2023-04-28T10:05:09;15.05;;;13.55;;
19842;SDS011;10082;51.038;6.992;2023-04-28T10:07:37;15.50;;;14.10;;
19842;SDS011;10082;51.038;6.992;2023-04-28T10:10:06;16.52;;;15.00;;
19842;SDS011;10082;51.038;6.992;2023-04-28T10:12:34;17.38;;;15.75;;
19842;SDS011;10082;51.038;6.992;2023-04-28T10:15:03;18.98;;;17.17;;
19842;SDS011;10082;51.038;6.992;2023-04-28T10:17:30;18.80;;;17.08;;
19842;SDS011;10082;51.038;6.992;2023-04-28T10:20:00;19.05;;;17.33;;
19842;SDS011;10082;51.038;6.992;2023-04-28T10:22:31;18.33;;;16.63;;
19842;SDS011;10082;51.038;6.992;2023-04-28T10:25:11;18.90;;;17.10;;
19842;SDS011;10082;51.038;6.992;2023-04-28T10:27:50;20.55;;;18.58;;
19842;SDS011;10082;51.038;6.992;2023-04-28T10:30:19;20.35;;;18.50;;
19842;SDS011;10082;51.038;6.992;2023-04-28T10:32:49;20.27;;;18.48;;
19842;SDS011;10082;51.038;6.992;2023-04-28T10:35:52;22.20;;;20.10;;
19842;SDS011;10082;51.038;6.992;2023-04-28T10:38:19;22.92;;;20.63;;
19842;SDS011;10082;51.038;6.992;2023-04-28T10:40:47;25.23;;;22.65;;
19842;SDS011;10082;51.038;6.992;2023-04-28T10:46:10;24.33;;;22.02;;
19842;SDS011;10082;51.038;6.992;2023-04-28T10:48:53;23.77;;;21.60;;
19842;SDS011;10082;51.038;6.992;2023-04-28T10:51:29;23.33;;;21.17;;
19842;SDS011;10082;51.038;6.992;2023-04-28T10:54:14;24.95;;;22.33;;
19842;SDS011;10082;51.038;6.992;2023-04-28T10:59:43;22.17;;;20.13;;
19842;SDS011;10082;51.038;6.992;2023-04-28T11:05:16;23.17;;;21.15;;
19842;SDS011;10082;51.038;6.992;2023-04-28T11:11:16;22.20;;;20.20;;
19842;SDS011;10082;51.038;6.992;2023-04-28T11:13:48;23.10;;;21.05;;
19842;SDS011;10082;51.038;6.992;2023-04-28T11:16:17;23.20;;;21.05;;
19842;SDS011;10082;51.038;6.992;2023-04-28T11:18:50;23.40;;;21.15;;
19842;SDS011;10082;51.038;6.992;2023-04-28T11:21:19;19.98;;;18.25;;
19842;SDS011;10082;51.038;6.992;2023-04-28T11:23:47;21.90;;;19.95;;
19842;SDS011;10082;51.038;6.992;2023-04-28T11:26:15;19.92;;;18.17;;
19842;SDS011;10082;51.038;6.992;2023-04-28T11:28:51;19.63;;;17.85;;
19842;SDS011;10082;51.038;6.992;2023-04-28T11:31:21;18.92;;;17.33;;
19842;SDS011;10082;51.038;6.992;2023-04-28T11:33:53;17.10;;;15.80;;
19842;SDS011;10082;51.038;6.992;2023-04-28T11:36:24;17.38;;;15.88;;
19842;SDS011;10082;51.038;6.992;2023-04-28T11:38:53;16.00;;;14.70;;
19842;SDS011;10082;51.038;6.992;2023-04-28T11:41:23;15.55;;;14.25;;
19842;SDS011;10082;51.038;6.992;2023-04-28T11:43:50;13.43;;;12.23;;
19842;SDS011;10082;51.038;6.992;2023-04-28T11:46:18;13.15;;;12.10;;
19842;SDS011;10082;51.038;6.992;2023-04-28T11:48:46;13.05;;;12.05;;
19842;SDS011;10082;51.038;6.992;2023-04-28T11:51:28;12.57;;;11.48;;
19842;SDS011;10082;51.038;6.992;2023-04-28T11:53:57;11.63;;;10.73;;
19842;SDS011;10082;51.038;6.992;2023-04-28T11:56:27;11.27;;;10.15;;
19842;SDS011;10082;51.038;6.992;2023-04-28T11:59:01;10.30;;;9.40;;
19842;SDS011;10082;51.038;6.992;2023-04-28T12:01:30;10.43;;;9.30;;
19842;SDS011;10082;51.038;6.992;2023-04-28T12:03:57;10.45;;;9.55;;
19842;SDS011;10082;51.038;6.992;2023-04-28T12:06:24;9.98;;;9.18;;
19842;SDS011;10082;51.038;6.992;2023-04-28T12:08:52;10.00;;;9.25;;
19842;SDS011;10082;51.038;6.992;2023-04-28T12:11:19;10.52;;;9.52;;
19842;SDS011;10082;51.038;6.992;2023-04-28T12:14:04;9.52;;;8.73;;
19842;SDS011;10082;51.038;6.992;2023-04-28T12:16:36;9.55;;;8.75;;
19842;SDS011;10082;51.038;6.992;2023-04-28T12:19:08;9.23;;;8.52;;
19842;SDS011;10082;51.038;6.992;2023-04-28T12:21:36;8.70;;;8.00;;
19842;SDS011;10082;51.038;6.992;2023-04-28T12:24:17;8.18;;;7.38;;
19842;SDS011;10082;51.038;6.992;2023-04-28T12:26:46;9.07;;;8.30;;
19842;SDS011;10082;51.038;6.992;2023-04-28T12:32:06;8.43;;;7.82;;
19842;SDS011;10082;51.038;6.992;2023-04-28T12:34:34;7.97;;;7.38;;
19842;SDS011;10082;51.038;6.992;2023-04-28T12:37:04;7.47;;;6.82;;
19842;SDS011;10082;51.038;6.992;2023-04-28T12:39:32;7.75;;;7.15;;
19842;SDS011;10082;51.038;6.992;2023-04-28T12:42:00;7.95;;;7.35;;
19842;SDS011;10082;51.038;6.992;2023-04-28T12:44:30;6.82;;;6.32;;
19842;SDS011;10082;51.038;6.992;2023-04-28T12:47:01;6.22;;;5.82;;
19842;SDS011;10082;51.038;6.992;2023-04-28T12:49:33;8.23;;;7.43;;
19842;SDS011;10082;51.038;6.992;2023-04-28T12:52:00;7.15;;;6.65;;
19842;SDS011;10082;51.038;6.992;2023-04-28T12:54:27;6.80;;;6.20;;
19842;SDS011;10082;51.038;6.992;2023-04-28T12:56:54;7.10;;;6.55;;
19842;SDS011;10082;51.038;6.992;2023-04-28T12:59:22;6.55;;;5.97;;
19842;SDS011;10082;51.038;6.992;2023-04-28T13:01:49;6.47;;;5.97;;
19842;SDS011;10082;51.038;6.992;2023-04-28T13:04:18;6.60;;;6.10;;
19842;SDS011;10082;51.038;6.992;2023-04-28T13:06:45;6.63;;;6.13;;
19842;SDS011;10082;51.038;6.992;2023-04-28T13:09:13;7.15;;;6.55;;
19842;SDS011;10082;51.038;6.992;2023-04-28T13:11:41;6.80;;;6.38;;
19842;SDS011;10082;51.038;6.992;2023-04-28T13:14:08;8.25;;;7.65;;
19842;SDS011;10082;51.038;6.992;2023-04-28T13:16:35;8.25;;;7.65;;
19842;SDS011;10082;51.038;6.992;2023-04-28T13:19:03;8.40;;;7.75;;
19842;SDS011;10082;51.038;6.992;2023-04-28T13:21:36;7.97;;;7.38;;
19842;SDS011;10082;51.038;6.992;2023-04-28T13:24:03;8.75;;;7.95;;
19842;SDS011;10082;51.038;6.992;2023-04-28T13:26:31;9.45;;;8.65;;
19842;SDS011;10082;51.038;6.992;2023-04-28T13:28:58;8.98;;;8.25;;
19842;SDS011;10082;51.038;6.992;2023-04-28T13:31:28;8.80;;;8.10;;
19842;SDS011;10082;51.038;6.992;2023-04-28T13:33:55;8.85;;;8.18;;
19842;SDS011;10082;51.038;6.992;2023-04-28T13:36:24;7.97;;;7.38;;
19842;SDS011;10082;51.038;6.992;2023-04-28T13:38:55;7.47;;;6.80;;
19842;SDS011;10082;51.038;6.992;2023-04-28T13:41:22;7.18;;;6.68;;
19842;SDS011;10082;51.038;6.992;2023-04-28T13:43:50;6.65;;;6.22;;
19842;SDS011;10082;51.038;6.992;2023-04-28T13:46:17;7.05;;;6.55;;
19842;SDS011;10082;51.038;6.992;2023-04-28T13:48:45;8.15;;;7.55;;
19842;SDS011;10082;51.038;6.992;2023-04-28T13:51:12;5.65;;;5.30;;
19842;SDS011;10082;51.038;6.992;2023-04-28T13:53:39;7.25;;;6.65;;
19842;SDS011;10082;51.038;6.992;2023-04-28T13:56:08;7.72;;;7.13;;
19842;SDS011;10082;51.038;6.992;2023-04-28T13:58:35;7.28;;;6.78;;
19842;SDS011;10082;51.038;6.992;2023-04-28T14:01:02;7.03;;;6.57;;
19842;SDS011;10082;51.038;6.992;2023-04-28T14:03:30;6.97;;;6.47;;
19842;SDS011;10082;51.038;6.992;2023-04-28T14:05:57;6.72;;;6.25;;
19842;SDS011;10082;51.038;6.992;2023-04-28T14:08:25;6.57;;;5.97;;
19842;SDS011;10082;51.038;6.992;2023-04-28T14:10:53;5.80;;;5.30;;
19842;SDS011;10082;51.038;6.992;2023-04-28T14:13:22;7.15;;;6.60;;
19842;SDS011;10082;51.038;6.992;2023-04-28T14:15:50;6.00;;;5.60;;
19842;SDS011;10082;51.038;6.992;2023-04-28T14:18:17;6.15;;;5.75;;
19842;SDS011;10082;51.038;6.992;2023-04-28T14:20:50;6.13;;;5.63;;
19842;SDS011;10082;51.038;6.992;2023-04-28T14:23:18;7.07;;;6.47;;
19842;SDS011;10082;51.038;6.992;2023-04-28T14:25:45;5.95;;;5.50;;
19842;SDS011;10082;51.038;6.992;2023-04-28T14:28:12;5.78;;;5.38;;
19842;SDS011;10082;51.038;6.992;2023-04-28T14:30:42;4.43;;;4.13;;
19842;SDS011;10082;51.038;6.992;2023-04-28T14:33:09;5.50;;;5.05;;
19842;SDS011;10082;51.038;6.992;2023-04-28T14:35:36;4.60;;;4.30;;
19842;SDS011;10082;51.038;6.992;2023-04-28T14:38:03;3.83;;;3.50;;
19842;SDS011;10082;51.038;6.992;2023-04-28T14:40:31;3.83;;;3.05;;
19842;SDS011;10082;51.038;6.992;2023-04-28T14:46:03;3.25;;;1.92;;
19842;SDS011;10082;51.038;6.992;2023-04-28T14:48:33;2.67;;;1.50;;
19842;SDS011;10082;51.038;6.992;2023-04-28T14:51:00;1.60;;;1.50;;
19842;SDS011;10082;51.038;6.992;2023-04-28T14:53:27;1.92;;;1.27;;
19842;SDS011;10082;51.038;6.992;2023-04-28T14:55:56;1.50;;;1.40;;
19842;SDS011;10082;51.038;6.992;2023-04-28T14:58:24;1.33;;;1.20;;
19842;SDS011;10082;51.038;6.992;2023-04-28T15:00:51;1.75;;;1.30;;
19842;SDS011;10082;51.038;6.992;2023-04-28T15:03:20;2.10;;;1.95;;
19842;SDS011;10082;51.038;6.992;2023-04-28T15:05:47;2.63;;;1.92;;
19842;SDS011;10082;51.038;6.992;2023-04-28T15:08:15;2.30;;;2.10;;
19842;SDS011;10082;51.038;6.992;2023-04-28T15:10:42;1.80;;;1.70;;
19842;SDS011;10082;51.038;6.992;2023-04-28T15:13:09;5.03;;;2.50;;
19842;SDS011;10082;51.038;6.992;2023-04-28T15:15:36;1.75;;;1.65;;
19842;SDS011;10082;51.038;6.992;2023-04-28T15:18:04;2.40;;;1.50;;
19842;SDS011;10082;51.038;6.992;2023-04-28T15:20:33;3.90;;;1.55;;
19842;SDS011;10082;51.038;6.992;2023-04-28T15:23:01;1.65;;;1.48;;